createdAt,value
2018-03-28T00:00:55.129Z,96177.43
2018-03-28T00:04:18.462Z,96168.09
2018-03-28T00:07:41.779Z,96169.72
2018-03-28T00:11:05.464Z,96165.77
2018-03-28T00:14:28.783Z,96159.72
2018-03-28T00:17:52.114Z,96160.55
2018-03-28T00:21:15.396Z,96160.27
2018-03-28T00:24:38.729Z,96171.16
2018-03-28T00:28:02.823Z,96160.80
2018-03-28T00:31:26.104Z,96154.78
2018-03-28T00:34:49.415Z,96140.30
2018-03-28T00:38:12.766Z,96150.94
2018-03-28T00:41:36.089Z,96151.36
2018-03-28T00:45:00.131Z,96145.13
2018-03-28T00:48:23.395Z,96136.98
2018-03-28T00:51:47.491Z,96142.97
2018-03-28T00:55:10.849Z,96151.86
2018-03-28T00:58:34.126Z,96151.08
2018-03-28T01:01:57.418Z,96149.55
2018-03-28T01:05:20.696Z,96145.17
2018-03-28T01:08:43.992Z,96152.41
2018-03-28T01:12:07.280Z,96155.96
2018-03-28T01:15:30.557Z,96154.56
2018-03-28T01:18:54.631Z,96162.77
2018-03-28T01:22:18.787Z,96164.67
2018-03-28T01:25:42.115Z,96140.34
2018-03-28T01:29:05.467Z,96134.72
2018-03-28T01:32:28.886Z,96130.31
2018-03-28T01:35:52.171Z,96155.84
2018-03-28T01:39:15.531Z,96135.16
2018-03-28T01:42:38.885Z,96136.35
2018-03-28T01:46:02.240Z,96132.54
2018-03-28T01:49:25.509Z,96121.33
2018-03-28T01:52:48.793Z,96128.72
2018-03-28T01:56:12.109Z,96117.67
2018-03-28T01:59:35.469Z,96118.97
2018-03-28T02:02:58.803Z,96121.37
2018-03-28T02:06:22.066Z,96115.08
2018-03-28T02:09:45.377Z,96127.91
2018-03-28T02:13:08.699Z,96125.97
2018-03-28T02:16:32.038Z,96139.17
2018-03-28T02:19:55.338Z,96128.73
2018-03-28T02:23:19.441Z,96132.23
2018-03-28T02:26:42.751Z,96135.39
2018-03-28T02:30:06.077Z,96140.30
2018-03-28T02:33:29.386Z,96143.30
2018-03-28T02:36:52.680Z,96139.03
2018-03-28T02:40:15.998Z,96132.64
2018-03-28T02:43:39.302Z,96136.98
2018-03-28T02:47:02.593Z,96131.20
2018-03-28T02:50:25.889Z,96133.06
2018-03-28T02:53:49.220Z,96136.72
2018-03-28T02:57:12.590Z,96121.03
2018-03-28T03:00:35.845Z,96135.78
2018-03-28T03:04:00.058Z,96130.05
2018-03-28T03:07:24.126Z,96131.22
2018-03-28T03:10:47.458Z,96116.17
2018-03-28T03:14:10.751Z,96120.11
2018-03-28T03:17:34.031Z,96127.91
2018-03-28T03:20:57.462Z,96121.16
2018-03-28T03:24:20.816Z,96115.81
2018-03-28T03:27:44.106Z,96122.23
2018-03-28T03:31:07.476Z,96116.66
2018-03-28T03:34:30.841Z,96120.97
2018-03-28T03:37:54.219Z,96120.38
2018-03-28T03:41:18.250Z,96123.61
2018-03-28T03:44:41.561Z,96117.22
2018-03-28T03:48:04.930Z,96124.81
2018-03-28T03:51:28.190Z,96121.22
2018-03-28T03:54:52.335Z,96117.76
2018-03-28T03:58:15.651Z,96116.20
2018-03-28T04:01:38.953Z,96139.29
2018-03-28T04:05:03.007Z,96117.95
2018-03-28T04:08:26.363Z,96126.34
2018-03-28T04:11:49.697Z,96122.17
2018-03-28T04:15:13.002Z,96125.25
2018-03-28T04:18:36.378Z,96135.27
2018-03-28T04:21:59.718Z,96130.35
2018-03-28T04:25:23.016Z,96127.93
2018-03-28T04:28:46.322Z,96138.23
2018-03-28T04:32:09.618Z,96137.23
2018-03-28T04:35:32.935Z,96141.48
2018-03-28T04:38:56.277Z,96132.54
2018-03-28T04:42:19.546Z,96136.34
2018-03-28T04:45:42.824Z,96129.96
2018-03-28T04:49:06.136Z,96141.78
2018-03-28T04:52:29.478Z,96143.52
2018-03-28T04:55:52.961Z,96140.52
2018-03-28T04:59:17.064Z,96137.63
2018-03-28T05:02:40.367Z,96141.27
2018-03-28T05:06:03.689Z,96131.91
2018-03-28T05:09:27.787Z,96134.09
2018-03-28T05:12:51.063Z,96122.83
2018-03-28T05:16:14.348Z,96123.35
2018-03-28T05:19:37.763Z,96119.80
2018-03-28T05:23:01.877Z,96111.94
2018-03-28T05:26:25.154Z,96123.77
2018-03-28T05:29:48.424Z,96115.52
2018-03-28T05:33:11.750Z,96112.29
2018-03-28T05:36:35.507Z,96114.96
2018-03-28T05:39:58.814Z,96117.95
2018-03-28T05:43:22.174Z,96119.13
2018-03-28T05:46:45.506Z,96115.69
2018-03-28T05:50:08.782Z,96126.58
2018-03-28T05:53:32.084Z,96112.20
2018-03-28T05:56:55.372Z,96122.26
2018-03-28T06:00:18.661Z,96132.25
2018-03-28T06:03:42.034Z,96126.42
2018-03-28T06:07:05.402Z,96126.42
2018-03-28T06:10:29.460Z,96126.82
2018-03-28T06:13:52.854Z,96128.56
2018-03-28T06:17:16.917Z,96119.92
2018-03-28T06:20:40.326Z,96121.06
2018-03-28T06:24:03.594Z,96124.57
2018-03-28T06:27:26.910Z,96121.54
2018-03-28T06:30:50.255Z,96123.00
2018-03-28T06:34:14.364Z,96110.25
2018-03-28T06:37:38.450Z,96112.06
2018-03-28T06:41:01.835Z,96105.80
2018-03-28T06:44:25.171Z,96101.20
2018-03-28T06:47:49.296Z,96100.63
2018-03-28T06:51:12.556Z,96079.99
2018-03-28T06:54:35.850Z,96088.16
2018-03-28T06:57:59.150Z,96084.00
2018-03-28T07:01:22.544Z,96088.74
2018-03-28T07:04:46.648Z,96081.90
2018-03-28T07:08:09.935Z,96087.30
2018-03-28T07:11:33.240Z,96091.14
2018-03-28T07:14:56.620Z,96078.38
2018-03-28T07:18:20.676Z,96077.38
2018-03-28T07:21:44.016Z,96079.41
2018-03-28T07:25:07.297Z,96083.32
2018-03-28T07:28:30.606Z,96072.50
2018-03-28T07:31:53.940Z,96073.95
2018-03-28T07:35:17.218Z,96073.82
2018-03-28T07:38:40.518Z,96067.48
2018-03-28T07:42:03.845Z,96074.01
2018-03-28T07:45:27.977Z,96065.73
2018-03-28T07:48:51.359Z,96063.98
2018-03-28T07:52:15.465Z,96065.38
2018-03-28T07:55:38.750Z,96068.19
2018-03-28T07:59:02.054Z,96064.94
2018-03-28T08:02:25.382Z,96064.95
2018-03-28T08:05:48.692Z,96063.56
2018-03-28T08:09:12.119Z,96062.39
2018-03-28T08:12:35.755Z,96050.37
2018-03-28T08:15:58.602Z,96047.72
2018-03-28T08:19:21.899Z,96046.19
2018-03-28T08:22:45.192Z,96041.70
2018-03-28T08:26:08.621Z,96036.53
2018-03-28T08:29:31.463Z,96032.19
2018-03-28T08:32:54.833Z,96029.67
2018-03-28T08:36:18.180Z,96026.58
2018-03-28T08:39:41.531Z,96020.30
2018-03-28T08:43:04.455Z,96018.20
2018-03-28T08:46:27.304Z,96013.77
2018-03-28T08:49:50.149Z,95997.98
2018-03-28T08:53:12.982Z,96002.28
2018-03-28T08:56:35.809Z,95989.72
2018-03-28T08:59:59.413Z,95989.48
2018-03-28T09:03:22.264Z,95998.54
2018-03-28T09:06:45.095Z,95990.73
2018-03-28T09:10:07.913Z,95985.80
2018-03-28T09:13:30.754Z,95984.48
2018-03-28T09:16:53.590Z,95986.80
2018-03-28T09:20:16.505Z,95990.57
2018-03-28T09:23:39.327Z,95987.22
2018-03-28T09:27:02.169Z,95979.43
2018-03-28T09:30:25.924Z,95972.43
2018-03-28T09:33:49.826Z,95962.63
2018-03-28T09:37:13.426Z,95969.00
2018-03-28T09:40:36.239Z,95968.50
2018-03-28T09:43:59.876Z,95965.84
2018-03-28T09:47:23.492Z,95956.71
2018-03-28T09:50:46.337Z,95941.20
2018-03-28T09:54:09.360Z,95941.07
2018-03-28T09:57:32.667Z,95935.67
2018-03-28T10:01:02.105Z,95930.85
2018-03-28T10:04:26.799Z,95937.64
2018-03-28T10:07:50.629Z,95931.94
2018-03-28T10:11:13.456Z,95938.34
2018-03-28T10:14:36.306Z,95930.39
2018-03-28T10:17:59.165Z,95921.80
2018-03-28T10:21:22.015Z,95925.85
2018-03-28T10:24:44.859Z,95921.75
2018-03-28T10:28:07.700Z,95910.44
2018-03-28T10:31:30.533Z,95915.08
2018-03-28T10:34:54.130Z,95908.63
2018-03-28T10:38:16.981Z,95917.06
2018-03-28T10:41:40.251Z,95906.53
2018-03-28T10:45:03.083Z,95906.13
2018-03-28T10:48:26.688Z,95895.52
2018-03-28T10:51:49.570Z,95887.80
2018-03-28T10:55:13.282Z,95884.81
2018-03-28T10:58:36.127Z,95880.70
2018-03-28T11:01:58.975Z,95876.01
2018-03-28T11:05:21.824Z,95875.67
2018-03-28T11:08:45.110Z,95856.50
2018-03-28T11:12:08.398Z,95868.77
2018-03-28T11:15:31.276Z,95862.15
2018-03-28T11:18:54.118Z,95853.08
2018-03-28T11:22:17.747Z,95856.38
2018-03-28T11:25:41.367Z,95843.03
2018-03-28T11:29:04.642Z,95846.88
2018-03-28T11:32:28.338Z,95845.03
2018-03-28T11:35:54.624Z,95850.98
2018-03-28T11:39:17.914Z,95841.66
2018-03-28T11:42:40.743Z,95833.10
2018-03-28T11:46:04.798Z,95828.07
2018-03-28T11:49:28.217Z,95815.67
2018-03-28T11:52:51.574Z,95820.30
2018-03-28T11:56:14.816Z,95811.76
2018-03-28T11:59:38.857Z,95806.42
2018-03-28T12:03:02.141Z,95799.70
2018-03-28T12:06:25.409Z,95791.22
2018-03-28T12:09:48.677Z,95790.03
2018-03-28T12:13:12.716Z,95778.03
2018-03-28T12:16:36.012Z,95783.28
2018-03-28T12:19:58.836Z,95772.52
2018-03-28T12:23:26.595Z,95763.42
2018-03-28T12:26:49.426Z,95766.52
2018-03-28T12:30:12.748Z,95756.57
2018-03-28T12:33:36.789Z,95749.48
2018-03-28T12:37:00.918Z,95752.33
2018-03-28T12:40:24.972Z,95735.09
2018-03-28T12:43:48.248Z,95735.45
2018-03-28T12:47:11.065Z,95739.02
2018-03-28T12:50:34.694Z,95735.40
2018-03-28T12:53:58.046Z,95714.97
2018-03-28T12:57:22.410Z,95708.99
2018-03-28T13:00:45.336Z,95712.91
2018-03-28T13:04:08.623Z,95706.91
2018-03-28T13:07:32.274Z,95710.69
2018-03-28T13:10:55.100Z,95699.88
2018-03-28T13:14:18.420Z,95700.09
2018-03-28T13:17:42.471Z,95698.77
2018-03-28T13:21:05.745Z,95700.86
2018-03-28T13:24:29.018Z,95699.90
2018-03-28T13:27:52.307Z,95696.27
2018-03-28T13:31:16.631Z,95691.03
2018-03-28T13:34:39.469Z,95683.50
2018-03-28T13:38:02.732Z,95673.15
2018-03-28T13:41:26.018Z,95665.77
2018-03-28T13:44:50.091Z,95680.79
2018-03-28T13:48:14.156Z,95663.22
2018-03-28T13:51:38.202Z,95672.14
2018-03-28T13:55:01.497Z,95664.91
2018-03-28T13:58:24.836Z,95653.75
2018-03-28T14:01:48.918Z,95654.09
2018-03-28T14:05:12.191Z,95648.98
2018-03-28T14:08:36.272Z,95641.37
2018-03-28T14:12:00.326Z,95635.69
2018-03-28T14:15:23.640Z,95627.70
2018-03-28T14:18:46.472Z,95630.11
2018-03-28T14:22:09.989Z,95626.67
2018-03-28T14:25:33.294Z,95607.15
2018-03-28T14:28:56.572Z,95605.61
2018-03-28T14:32:20.610Z,95587.84
2018-03-28T14:35:43.900Z,95584.70
2018-03-28T14:39:07.208Z,95587.59
2018-03-28T14:42:30.499Z,95585.16
2018-03-28T14:45:54.539Z,95586.03
2018-03-28T14:49:17.815Z,95582.08
2018-03-28T14:52:41.137Z,95573.45
2018-03-28T14:56:04.582Z,95584.61
2018-03-28T14:59:28.622Z,95567.13
2018-03-28T15:02:52.228Z,95550.31
2018-03-28T15:06:15.510Z,95546.42
2018-03-28T15:09:38.804Z,95535.22
2018-03-28T15:13:02.085Z,95523.58
2018-03-28T15:16:25.395Z,95520.56
2018-03-28T15:19:49.489Z,95516.16
2018-03-28T15:23:12.771Z,95513.89
2018-03-28T15:26:35.658Z,95509.98
2018-03-28T15:33:47.393Z,95500.23
2018-03-28T15:37:11.551Z,95502.38
2018-03-28T15:40:38.844Z,95491.56
2018-03-28T15:44:02.961Z,95481.87
2018-03-28T15:47:26.526Z,95495.59
2018-03-28T15:50:51.251Z,95484.05
2018-03-28T15:54:14.538Z,95476.25
2018-03-28T15:57:38.062Z,95488.36
2018-03-28T16:01:01.416Z,95475.60
2018-03-28T16:04:27.723Z,95449.70
2018-03-28T16:07:51.828Z,95462.05
2018-03-28T16:11:15.091Z,95463.63
2018-03-28T16:14:39.211Z,95454.58
2018-03-28T16:18:02.491Z,95452.75
2018-03-28T16:21:25.834Z,95452.34
2018-03-28T16:24:49.138Z,95448.68
2018-03-28T16:28:12.487Z,95428.13
2018-03-28T16:31:35.836Z,95446.55
2018-03-28T16:34:59.108Z,95432.03
2018-03-28T16:38:22.806Z,95438.47
2018-03-28T16:41:45.689Z,95426.13
2018-03-28T16:45:08.600Z,95426.47
2018-03-28T16:48:31.497Z,95425.30
2018-03-28T16:51:54.481Z,95408.61
2018-03-28T16:55:18.498Z,95405.28
2018-03-28T16:58:42.060Z,95393.67
2018-03-28T17:02:05.545Z,95398.55
2018-03-28T17:05:28.943Z,95403.98
2018-03-28T17:08:55.340Z,95406.95
2018-03-28T17:12:18.850Z,95407.73
2018-03-28T17:15:43.002Z,95415.75
2018-03-28T17:19:06.315Z,95418.77
2018-03-28T17:22:29.622Z,95419.65
2018-03-28T17:25:52.495Z,95418.03
2018-03-28T17:29:17.355Z,95415.85
2018-03-28T17:32:40.751Z,95404.30
2018-03-28T17:36:04.848Z,95409.91
2018-03-28T17:39:28.231Z,95400.45
2018-03-28T17:42:51.578Z,95419.46
2018-03-28T17:46:14.537Z,95420.70
2018-03-28T17:49:38.508Z,95436.90
2018-03-28T17:53:01.875Z,95406.58
2018-03-28T17:56:25.952Z,95423.27
2018-03-28T17:59:49.324Z,95428.03
2018-03-28T18:03:12.671Z,95424.83
2018-03-28T18:06:36.026Z,95425.30
2018-03-28T18:09:59.376Z,95433.44
2018-03-28T18:13:22.748Z,95443.31
2018-03-28T18:16:46.115Z,95449.92
2018-03-28T18:20:10.184Z,95452.17
2018-03-28T18:23:33.571Z,95456.45
2018-03-28T18:26:57.676Z,95458.07
2018-03-28T18:30:21.077Z,95479.23
2018-03-28T18:33:45.127Z,95464.58
2018-03-28T18:37:08.497Z,95475.34
2018-03-28T18:40:31.987Z,95492.36
2018-03-28T18:43:55.205Z,95490.00
2018-03-28T18:47:18.598Z,95499.72
2018-03-28T18:50:42.712Z,95508.70
2018-03-28T18:54:05.993Z,95505.95
2018-03-28T18:57:29.270Z,95516.95
2018-03-28T19:00:52.569Z,95525.90
2018-03-28T19:04:15.937Z,95528.19
2018-03-28T19:07:38.800Z,95546.17
2018-03-28T19:11:01.719Z,95544.62
2018-03-28T19:14:26.208Z,95543.07
2018-03-28T19:17:49.072Z,95545.28
2018-03-28T19:21:11.951Z,95556.52
2018-03-28T19:24:35.568Z,95536.97
2018-03-28T19:27:58.442Z,95553.84
2018-03-28T19:31:22.100Z,95561.91
2018-03-28T19:34:45.722Z,95559.77
2018-03-28T19:38:08.811Z,95552.36
2018-03-28T19:41:32.423Z,95569.81
2018-03-28T19:44:55.346Z,95593.03
2018-03-28T19:48:18.222Z,95620.86
2018-03-28T19:51:41.846Z,95590.38
2018-03-28T19:55:04.770Z,95579.02
2018-03-28T19:58:27.687Z,95581.45
2018-03-28T20:01:50.532Z,95588.28
2018-03-28T20:05:13.450Z,95574.99
2018-03-28T20:08:36.299Z,95579.30
2018-03-28T20:11:59.178Z,95572.45
2018-03-28T20:15:22.869Z,95570.22
2018-03-28T20:18:45.710Z,95570.91
2018-03-28T20:22:08.601Z,95575.35
2018-03-28T20:25:32.230Z,95580.52
2018-03-28T20:28:55.136Z,95582.89
2018-03-28T20:32:18.045Z,95593.83
2018-03-28T20:35:40.910Z,95601.14
2018-03-28T20:39:03.844Z,95609.51
2018-03-28T20:42:27.460Z,95603.95
2018-03-28T20:45:50.342Z,95603.91
2018-03-28T20:49:13.953Z,95618.73
2018-03-28T20:52:36.824Z,95607.08
2018-03-28T20:55:59.723Z,95603.05
2018-03-28T20:59:22.687Z,95604.34
2018-03-28T21:02:46.318Z,95598.98
2018-03-28T21:06:09.141Z,95596.25
2018-03-28T21:09:32.018Z,95585.12
2018-03-28T21:12:54.912Z,95590.67
2018-03-28T21:16:17.758Z,95592.47
2018-03-28T21:19:41.011Z,95587.69
2018-03-28T21:23:04.636Z,95585.59
2018-03-28T21:26:27.467Z,95582.17
2018-03-28T21:29:50.346Z,95580.23
2018-03-28T21:33:14.023Z,95576.20
2018-03-28T21:36:36.897Z,95581.75
2018-03-28T21:39:59.752Z,95576.43
2018-03-28T21:43:22.658Z,95584.03
2018-03-28T21:46:45.698Z,95577.06
2018-03-28T21:50:09.300Z,95587.30
2018-03-28T21:53:32.186Z,95579.42
2018-03-28T21:56:55.234Z,95574.81
2018-03-28T22:00:18.934Z,95571.63
2018-03-28T22:03:42.794Z,95574.48
2018-03-28T22:07:05.687Z,95582.84
2018-03-28T22:10:29.290Z,95587.97
2018-03-28T22:13:52.354Z,95599.34
2018-03-28T22:17:15.205Z,95613.42
2018-03-28T22:20:38.106Z,95595.36
2018-03-28T22:24:01.868Z,95598.98
2018-03-28T22:27:24.765Z,95599.55
2018-03-28T22:30:47.667Z,95620.84
2018-03-28T22:34:10.540Z,95628.70
2018-03-28T22:37:33.399Z,95630.18
2018-03-28T22:40:56.237Z,95630.11
2018-03-28T22:44:19.114Z,95630.46
2018-03-28T22:47:42.728Z,95654.89
2018-03-28T22:51:05.756Z,95662.62
2018-03-28T22:54:28.557Z,95669.84
2018-03-28T22:57:51.425Z,95679.64
2018-03-28T23:01:14.322Z,95683.55
2018-03-28T23:04:37.190Z,95681.63
2018-03-28T23:08:00.036Z,95685.18
2018-03-28T23:11:23.027Z,95705.30
2018-03-28T23:14:45.982Z,95704.89
2018-03-28T23:18:09.596Z,95708.52
2018-03-28T23:21:32.450Z,95714.23
2018-03-28T23:24:55.291Z,95714.98
2018-03-28T23:28:18.124Z,95717.50
2018-03-28T23:31:40.976Z,95724.91
2018-03-28T23:35:03.849Z,95731.55
2018-03-28T23:38:26.681Z,95735.74
2018-03-28T23:41:49.536Z,95742.25
2018-03-28T23:45:12.867Z,95746.66
2018-03-28T23:48:35.714Z,95743.56
2018-03-28T23:51:58.575Z,95743.88
2018-03-28T23:55:21.464Z,95752.44
2018-03-28T23:58:45.068Z,95742.68
